Time;durP1;ratioP1;P1;durP2;ratioP2;P2;SDS_P1;SDS_P2;PMS_P1;PMS_P2;Temp;Humidity;BMP_temperature;BMP_pressure;BME280_temperature;BME280_humidity;BME280_pressure;Samples;Min_cycle;Max_cycle;Signal;HPM_P1;HPM_P2
2024/01/20 11:03:35;;;;;;;8.10;3.40;;;;;;;0.61;65.23;99851.54;102044;1293;635376;-68
2024/01/20 11:06:03;;;;;;;9.20;4.00;;;;;;;0.61;65.26;99851.71;104806;1269;94298;-67
2024/01/20 11:08:31;;;;;;;13.60;4.40;;;;;;;0.62;65.13;99849.61;105098;1263;94319;-66
2024/01/20 11:11:00;;;;;;;9.90;4.90;;;;;;;0.62;65.21;99847.15;104984;1263;107339;-67
2024/01/20 11:13:27;;;;;;;10.30;4.40;;;;;;;0.59;65.06;99846.69;105066;1262;95263;-69
2024/01/20 11:15:57;;;;;;;9.90;4.50;;;;;;;0.57;64.90;99842.70;104989;1260;106946;-67
2024/01/20 11:18:26;;;;;;;10.00;4.60;;;;;;;0.56;64.92;99840.13;105289;1260;158007;-67
2024/01/20 11:20:57;;;;;;;7.80;3.30;;;;;;;0.57;64.98;99838.52;105350;1257;94952;-69
2024/01/20 11:23:26;;;;;;;9.50;4.20;;;;;;;0.54;64.81;99832.81;105217;1258;108445;-69
2024/01/20 11:25:55;;;;;;;12.30;5.30;;;;;;;0.57;65.05;99837.13;105152;1262;95425;-71
2024/01/20 11:28:26;;;;;;;12.70;6.20;;;;;;;0.63;65.15;99832.12;105351;1258;109030;-66
2024/01/20 11:30:54;;;;;;;13.30;5.10;;;;;;;0.66;65.23;99833.63;105446;1260;96214;-68
2024/01/20 11:33:23;;;;;;;14.50;5.10;;;;;;;0.67;65.26;99831.69;105335;1260;95272;-68
2024/01/20 11:35:52;;;;;;;13.50;4.80;;;;;;;0.68;65.05;99829.06;105113;1260;107054;-69
2024/01/20 11:38:21;;;;;;;11.40;4.70;;;;;;;0.68;65.05;99833.23;105186;1260;95544;-69
2024/01/20 11:41:00;;;;;;;9.80;4.70;;;;;;;0.72;65.25;99828.27;105268;1260;107711;-68
2024/01/20 11:43:28;;;;;;;7.70;4.70;;;;;;;0.78;65.04;99822.40;105114;1258;96059;-68
2024/01/20 11:45:56;;;;;;;8.90;4.60;;;;;;;0.81;65.04;99824.79;105155;1257;95186;-72
2024/01/20 11:48:25;;;;;;;11.20;4.80;;;;;;;0.85;65.05;99821.02;105247;1259;108604;-68
2024/01/20 11:50:54;;;;;;;9.40;5.00;;;;;;;0.87;65.06;99814.87;105244;1257;95268;-68
2024/01/20 11:53:22;;;;;;;16.40;6.00;;;;;;;0.94;64.97;99812.47;105457;1262;107185;-69
2024/01/20 11:55:55;;;;;;;11.50;5.50;;;;;;;0.98;65.11;99808.20;105490;1260;95287;-70
2024/01/20 11:58:23;;;;;;;14.80;6.30;;;;;;;1.02;64.94;99806.36;105372;1262;95052;-70
2024/01/20 12:00:53;;;;;;;17.10;6.20;;;;;;;1.03;65.05;99806.85;105604;1257;108000;-67
2024/01/20 12:03:49;;;;;;;14.00;6.20;;;;;;;1.06;65.11;99806.80;105881;1257;95467;-69
2024/01/20 12:06:17;;;;;;;10.10;4.70;;;;;;;1.05;64.60;99798.77;107752;1253;108052;-67
2024/01/20 12:08:46;;;;;;;13.00;6.40;;;;;;;1.01;64.65;99786.80;105611;1257;95285;-70
2024/01/20 12:11:21;;;;;;;9.90;4.70;;;;;;;0.99;64.80;99783.17;105636;1253;95147;-69
2024/01/20 12:13:49;;;;;;;13.60;5.80;;;;;;;0.99;64.67;99786.35;105398;1256;108707;-69
2024/01/20 12:16:18;;;;;;;8.80;3.90;;;;;;;0.96;64.72;99784.66;105650;1257;95436;-67
2024/01/20 12:18:46;;;;;;;10.80;4.80;;;;;;;0.95;64.78;99780.84;105614;1257;106720;-74
2024/01/20 12:21:17;;;;;;;10.60;5.10;;;;;;;0.94;64.87;99779.28;105685;1256;95224;-76
2024/01/20 12:23:54;;;;;;;13.50;5.80;;;;;;;0.94;64.85;99780.69;105336;1259;95296;-73
2024/01/20 12:26:22;;;;;;;13.20;5.70;;;;;;;0.95;64.80;99785.91;105510;1258;108537;-70
2024/01/20 12:28:52;;;;;;;16.10;6.00;;;;;;;0.95;64.86;99783.63;105447;1263;96184;-71
2024/01/20 12:31:20;;;;;;;14.20;5.10;;;;;;;0.97;64.89;99776.25;105471;1255;109552;-69
2024/01/20 12:33:50;;;;;;;8.70;4.70;;;;;;;0.98;64.70;99771.86;105562;1254;95230;-70
2024/01/20 12:36:19;;;;;;;10.80;5.00;;;;;;;1.00;64.86;99775.50;105706;1254;95287;-69
2024/01/20 12:38:47;;;;;;;12.10;5.40;;;;;;;1.03;64.98;99776.62;105767;1253;106776;-69
2024/01/20 12:41:15;;;;;;;16.00;5.60;;;;;;;1.08;64.71;99776.19;105416;1254;96181;-69
2024/01/20 12:43:47;;;;;;;11.70;5.80;;;;;;;1.09;64.56;99776.70;105507;1257;107129;-68
2024/01/20 12:46:16;;;;;;;17.30;7.00;;;;;;;1.09;64.75;99777.05;105376;1257;96175;-69
2024/01/20 12:48:44;;;;;;;25.00;8.80;;;;;;;1.12;64.73;99781.17;105472;1257;95218;-68
2024/01/20 12:51:12;;;;;;;23.70;7.80;;;;;;;1.15;64.84;99781.27;105585;1254;108003;-69
2024/01/20 12:53:40;;;;;;;16.80;6.30;;;;;;;1.17;64.75;99780.02;105627;1253;95285;-68
2024/01/20 12:56:08;;;;;;;6.70;3.90;;;;;;;1.22;64.76;99776.05;105354;1257;106760;-68
2024/01/20 12:58:36;;;;;;;12.40;5.10;;;;;;;1.25;64.58;99772.66;105597;1259;95364;-69
2024/01/20 13:01:06;;;;;;;13.40;6.10;;;;;;;1.27;64.82;99774.36;105640;1257;95215;-68
2024/01/20 13:03:34;;;;;;;14.30;5.70;;;;;;;1.29;64.61;99775.89;105531;1257;108656;-69
2024/01/20 13:06:03;;;;;;;12.90;5.20;;;;;;;1.31;64.66;99777.06;105287;1257;95214;-66
2024/01/20 13:08:31;;;;;;;13.30;5.10;;;;;;;1.32;64.76;99774.60;105628;1257;107275;-67
2024/01/20 13:10:58;;;;;;;9.90;4.60;;;;;;;1.32;64.52;99772.67;105198;1254;96277;-68
2024/01/20 13:13:26;;;;;;;12.10;4.40;;;;;;;1.29;64.32;99773.77;105518;1257;95323;-69
2024/01/20 13:15:56;;;;;;;9.50;4.40;;;;;;;1.26;64.12;99775.27;105331;1257;108170;-69
2024/01/20 13:18:24;;;;;;;10.20;5.00;;;;;;;1.24;64.36;99774.61;105574;1253;95500;-69
2024/01/20 13:20:52;;;;;;;12.20;5.30;;;;;;;1.25;64.41;99781.21;105559;1256;107330;-69
